Haldane, Illinois
Current Conditions -  °F | °C
As of 7:55 AM on Monday 22 Dec 2014 (Local Time) from KFEP Reporting Station
Haze Haze  
Wind Chill: 26°   Ceiling: 4400
Heat Index: 32°   Visibility: 4mi
Dew Point: 30°   Wind: 7mph
Humidity: 93%   Direction: 110°ESE
Pressure: 29.86"   Gusts: NA
Location:  42.1164°N, 89.5849°W
Report Text: KFEP 221355Z AUTO 11006KT 4SM BR SCT035 OVC044 00/M01 A2986 RMK AO2 T00001010
Loading
Personal Weather Stations






























Interactive Weather Map New forecast layout! Learn more

10-Day Weather Forecast

Advertisements
Track Severe Weather on mobile